sensor_id;sensor_type;location;lat;lon;timestamp;P1;durP1;ratioP1;P2;durP2;ratioP2
67675;SDS011;54456;48.436;10.028;2023-04-24T03:15:51;5.88;;;2.10;;
67675;SDS011;54456;48.436;10.028;2023-04-24T03:17:21;6.13;;;2.00;;
67675;SDS011;54456;48.436;10.028;2023-04-24T03:18:52;4.70;;;1.40;;
67675;SDS011;54456;48.436;10.028;2023-04-24T03:20:22;3.77;;;1.43;;
67675;SDS011;54456;48.436;10.028;2023-04-24T03:21:52;5.43;;;1.67;;
67675;SDS011;54456;48.436;10.028;2023-04-24T03:23:22;5.53;;;1.83;;
67675;SDS011;54456;48.436;10.028;2023-04-24T03:24:53;5.90;;;1.90;;
67675;SDS011;54456;48.436;10.028;2023-04-24T03:26:24;6.05;;;1.95;;
67675;SDS011;54456;48.436;10.028;2023-04-24T03:27:55;5.65;;;2.00;;
67675;SDS011;54456;48.436;10.028;2023-04-24T03:29:25;5.10;;;1.80;;
67675;SDS011;54456;48.436;10.028;2023-04-24T03:30:55;5.23;;;1.67;;
67675;SDS011;54456;48.436;10.028;2023-04-24T03:32:26;6.03;;;2.10;;
67675;SDS011;54456;48.436;10.028;2023-04-24T03:33:56;7.13;;;2.03;;
67675;SDS011;54456;48.436;10.028;2023-04-24T03:35:26;6.37;;;2.13;;
67675;SDS011;54456;48.436;10.028;2023-04-24T03:36:56;6.23;;;2.10;;
67675;SDS011;54456;48.436;10.028;2023-04-24T03:38:27;5.97;;;1.90;;
67675;SDS011;54456;48.436;10.028;2023-04-24T03:39:57;6.00;;;2.20;;
67675;SDS011;54456;48.436;10.028;2023-04-24T03:41:27;7.10;;;2.10;;
67675;SDS011;54456;48.436;10.028;2023-04-24T03:42:57;5.60;;;2.00;;
67675;SDS011;54456;48.436;10.028;2023-04-24T03:44:27;6.00;;;1.97;;
67675;SDS011;54456;48.436;10.028;2023-04-24T03:45:58;8.67;;;2.50;;
67675;SDS011;54456;48.436;10.028;2023-04-24T03:47:28;7.50;;;2.50;;
67675;SDS011;54456;48.436;10.028;2023-04-24T03:48:58;6.93;;;2.47;;
67675;SDS011;54456;48.436;10.028;2023-04-24T03:50:28;8.00;;;2.60;;
67675;SDS011;54456;48.436;10.028;2023-04-24T03:51:59;6.05;;;2.28;;
67675;SDS011;54456;48.436;10.028;2023-04-24T03:53:29;7.97;;;2.70;;
67675;SDS011;54456;48.436;10.028;2023-04-24T03:54:59;8.73;;;2.70;;
67675;SDS011;54456;48.436;10.028;2023-04-24T03:56:29;7.47;;;2.60;;
67675;SDS011;54456;48.436;10.028;2023-04-24T03:58:00;8.53;;;3.10;;
67675;SDS011;54456;48.436;10.028;2023-04-24T03:59:30;7.30;;;2.75;;
67675;SDS011;54456;48.436;10.028;2023-04-24T04:01:01;8.30;;;3.30;;
67675;SDS011;54456;48.436;10.028;2023-04-24T04:02:31;8.67;;;2.93;;
67675;SDS011;54456;48.436;10.028;2023-04-24T04:04:01;8.63;;;2.77;;
67675;SDS011;54456;48.436;10.028;2023-04-24T04:05:31;10.00;;;3.23;;
67675;SDS011;54456;48.436;10.028;2023-04-24T04:07:01;9.93;;;3.30;;
67675;SDS011;54456;48.436;10.028;2023-04-24T04:08:32;7.93;;;3.20;;
67675;SDS011;54456;48.436;10.028;2023-04-24T04:10:03;8.70;;;3.27;;
67675;SDS011;54456;48.436;10.028;2023-04-24T04:11:33;8.65;;;3.15;;
67675;SDS011;54456;48.436;10.028;2023-04-24T04:13:03;7.17;;;2.50;;
67675;SDS011;54456;48.436;10.028;2023-04-24T04:14:34;9.17;;;3.50;;
67675;SDS011;54456;48.436;10.028;2023-04-24T04:16:04;10.43;;;3.10;;
67675;SDS011;54456;48.436;10.028;2023-04-24T04:17:34;7.55;;;2.83;;
67675;SDS011;54456;48.436;10.028;2023-04-24T04:19:04;8.40;;;2.67;;
67675;SDS011;54456;48.436;10.028;2023-04-24T04:20:35;8.60;;;3.20;;
67675;SDS011;54456;48.436;10.028;2023-04-24T04:22:05;9.37;;;3.50;;
67675;SDS011;54456;48.436;10.028;2023-04-24T04:23:37;9.07;;;3.60;;
67675;SDS011;54456;48.436;10.028;2023-04-24T04:25:08;6.33;;;2.37;;
67675;SDS011;54456;48.436;10.028;2023-04-24T04:26:38;9.53;;;3.60;;
67675;SDS011;54456;48.436;10.028;2023-04-24T04:28:09;8.15;;;3.20;;
67675;SDS011;54456;48.436;10.028;2023-04-24T04:29:39;9.73;;;3.27;;
67675;SDS011;54456;48.436;10.028;2023-04-24T04:31:10;10.77;;;3.28;;
67675;SDS011;54456;48.436;10.028;2023-04-24T04:32:40;9.73;;;3.67;;
67675;SDS011;54456;48.436;10.028;2023-04-24T04:34:10;9.33;;;3.57;;
67675;SDS011;54456;48.436;10.028;2023-04-24T04:35:41;9.85;;;3.30;;
67675;SDS011;54456;48.436;10.028;2023-04-24T04:37:12;10.07;;;3.88;;
67675;SDS011;54456;48.436;10.028;2023-04-24T04:38:42;8.90;;;3.40;;
67675;SDS011;54456;48.436;10.028;2023-04-24T04:40:14;8.88;;;3.30;;
67675;SDS011;54456;48.436;10.028;2023-04-24T04:41:44;8.53;;;3.37;;
67675;SDS011;54456;48.436;10.028;2023-04-24T04:43:18;11.77;;;4.10;;
67675;SDS011;54456;48.436;10.028;2023-04-24T04:44:48;10.67;;;4.17;;
67675;SDS011;54456;48.436;10.028;2023-04-24T04:46:20;9.10;;;3.42;;
67675;SDS011;54456;48.436;10.028;2023-04-24T04:47:50;8.43;;;3.30;;
67675;SDS011;54456;48.436;10.028;2023-04-24T04:49:20;9.43;;;3.57;;
67675;SDS011;54456;48.436;10.028;2023-04-24T04:50:51;9.20;;;3.47;;
67675;SDS011;54456;48.436;10.028;2023-04-24T04:52:22;9.67;;;3.50;;
67675;SDS011;54456;48.436;10.028;2023-04-24T04:53:55;9.50;;;3.67;;
67675;SDS011;54456;48.436;10.028;2023-04-24T04:55:25;9.40;;;3.50;;
67675;SDS011;54456;48.436;10.028;2023-04-24T04:56:55;9.75;;;3.17;;
67675;SDS011;54456;48.436;10.028;2023-04-24T04:58:27;8.60;;;2.63;;
67675;SDS011;54456;48.436;10.028;2023-04-24T04:59:57;9.83;;;3.63;;
67675;SDS011;54456;48.436;10.028;2023-04-24T05:01:27;8.73;;;3.13;;
67675;SDS011;54456;48.436;10.028;2023-04-24T05:02:57;9.80;;;3.70;;
67675;SDS011;54456;48.436;10.028;2023-04-24T05:04:28;9.57;;;3.43;;
67675;SDS011;54456;48.436;10.028;2023-04-24T05:05:58;10.53;;;3.47;;
67675;SDS011;54456;48.436;10.028;2023-04-24T05:07:28;8.17;;;2.90;;
67675;SDS011;54456;48.436;10.028;2023-04-24T05:08:58;7.10;;;2.77;;
67675;SDS011;54456;48.436;10.028;2023-04-24T05:10:29;8.83;;;3.27;;
67675;SDS011;54456;48.436;10.028;2023-04-24T05:12:00;7.95;;;3.20;;
67675;SDS011;54456;48.436;10.028;2023-04-24T05:13:30;8.63;;;3.07;;
67675;SDS011;54456;48.436;10.028;2023-04-24T05:15:00;8.83;;;2.80;;
67675;SDS011;54456;48.436;10.028;2023-04-24T05:16:30;8.40;;;2.67;;
67675;SDS011;54456;48.436;10.028;2023-04-24T05:18:01;7.82;;;2.75;;
67675;SDS011;54456;48.436;10.028;2023-04-24T05:19:31;7.17;;;2.47;;
67675;SDS011;54456;48.436;10.028;2023-04-24T05:21:05;7.50;;;2.35;;
67675;SDS011;54456;48.436;10.028;2023-04-24T05:22:36;7.77;;;2.50;;
67675;SDS011;54456;48.436;10.028;2023-04-24T05:24:06;6.57;;;2.20;;
67675;SDS011;54456;48.436;10.028;2023-04-24T05:25:36;6.00;;;2.05;;
67675;SDS011;54456;48.436;10.028;2023-04-24T05:27:08;9.60;;;2.25;;
67675;SDS011;54456;48.436;10.028;2023-04-24T05:28:38;6.27;;;2.20;;
67675;SDS011;54456;48.436;10.028;2023-04-24T05:30:09;6.13;;;1.80;;
67675;SDS011;54456;48.436;10.028;2023-04-24T05:31:39;5.75;;;2.05;;
67675;SDS011;54456;48.436;10.028;2023-04-24T05:33:10;6.22;;;2.20;;
67675;SDS011;54456;48.436;10.028;2023-04-24T05:34:40;4.83;;;1.77;;
67675;SDS011;54456;48.436;10.028;2023-04-24T05:36:10;5.27;;;1.60;;
67675;SDS011;54456;48.436;10.028;2023-04-24T05:37:40;5.53;;;1.90;;
67675;SDS011;54456;48.436;10.028;2023-04-24T05:39:10;5.73;;;1.80;;
67675;SDS011;54456;48.436;10.028;2023-04-24T05:40:41;7.25;;;1.80;;
67675;SDS011;54456;48.436;10.028;2023-04-24T05:42:11;7.33;;;2.00;;
67675;SDS011;54456;48.436;10.028;2023-04-24T05:43:42;6.03;;;1.90;;
67675;SDS011;54456;48.436;10.028;2023-04-24T05:45:12;3.47;;;1.30;;
67675;SDS011;54456;48.436;10.028;2023-04-24T05:46:46;4.88;;;1.67;;
67675;SDS011;54456;48.436;10.028;2023-04-24T05:48:16;6.63;;;1.93;;
67675;SDS011;54456;48.436;10.028;2023-04-24T05:49:46;3.77;;;1.37;;
67675;SDS011;54456;48.436;10.028;2023-04-24T05:51:17;6.03;;;1.67;;
67675;SDS011;54456;48.436;10.028;2023-04-24T05:52:47;4.97;;;1.70;;
67675;SDS011;54456;48.436;10.028;2023-04-24T05:54:17;5.37;;;2.20;;
67675;SDS011;54456;48.436;10.028;2023-04-24T05:55:47;6.20;;;1.70;;
67675;SDS011;54456;48.436;10.028;2023-04-24T05:57:18;4.67;;;1.73;;
67675;SDS011;54456;48.436;10.028;2023-04-24T05:58:48;3.90;;;1.33;;
67675;SDS011;54456;48.436;10.028;2023-04-24T06:00:18;7.00;;;2.10;;
67675;SDS011;54456;48.436;10.028;2023-04-24T06:01:49;4.53;;;1.50;;
67675;SDS011;54456;48.436;10.028;2023-04-24T06:03:20;6.70;;;1.60;;
67675;SDS011;54456;48.436;10.028;2023-04-24T06:04:50;4.95;;;1.45;;
67675;SDS011;54456;48.436;10.028;2023-04-24T06:06:20;5.97;;;1.80;;
67675;SDS011;54456;48.436;10.028;2023-04-24T06:07:51;5.47;;;1.67;;
67675;SDS011;54456;48.436;10.028;2023-04-24T06:09:21;6.70;;;1.90;;
67675;SDS011;54456;48.436;10.028;2023-04-24T06:10:52;4.57;;;1.60;;
67675;SDS011;54456;48.436;10.028;2023-04-24T06:12:22;4.65;;;1.60;;
67675;SDS011;54456;48.436;10.028;2023-04-24T06:13:52;5.70;;;1.70;;
67675;SDS011;54456;48.436;10.028;2023-04-24T06:15:23;5.93;;;1.77;;
67675;SDS011;54456;48.436;10.028;2023-04-24T06:16:53;6.43;;;2.10;;
67675;SDS011;54456;48.436;10.028;2023-04-24T06:18:23;6.73;;;1.87;;
67675;SDS011;54456;48.436;10.028;2023-04-24T06:19:54;6.75;;;2.00;;
67675;SDS011;54456;48.436;10.028;2023-04-24T06:21:24;6.10;;;2.10;;
67675;SDS011;54456;48.436;10.028;2023-04-24T06:22:54;5.53;;;2.10;;
67675;SDS011;54456;48.436;10.028;2023-04-24T06:24:28;5.55;;;1.70;;
67675;SDS011;54456;48.436;10.028;2023-04-24T06:25:58;2.85;;;1.00;;
67675;SDS011;54456;48.436;10.028;2023-04-24T06:27:29;5.20;;;1.80;;
67675;SDS011;54456;48.436;10.028;2023-04-24T06:28:59;6.30;;;1.97;;
67675;SDS011;54456;48.436;10.028;2023-04-24T06:30:30;5.68;;;1.35;;
67675;SDS011;54456;48.436;10.028;2023-04-24T06:32:00;5.70;;;1.70;;
67675;SDS011;54456;48.436;10.028;2023-04-24T06:33:30;6.93;;;1.60;;
67675;SDS011;54456;48.436;10.028;2023-04-24T06:35:01;7.73;;;2.13;;
67675;SDS011;54456;48.436;10.028;2023-04-24T06:36:31;6.13;;;1.87;;
67675;SDS011;54456;48.436;10.028;2023-04-24T06:38:02;5.05;;;1.70;;
67675;SDS011;54456;48.436;10.028;2023-04-24T06:39:32;4.83;;;1.67;;
67675;SDS011;54456;48.436;10.028;2023-04-24T06:41:02;5.83;;;1.83;;
67675;SDS011;54456;48.436;10.028;2023-04-24T06:42:35;6.13;;;1.92;;
67675;SDS011;54456;48.436;10.028;2023-04-24T06:44:05;5.35;;;1.70;;
67675;SDS011;54456;48.436;10.028;2023-04-24T06:45:35;6.00;;;2.17;;
67675;SDS011;54456;48.436;10.028;2023-04-24T06:47:06;5.07;;;1.77;;
67675;SDS011;54456;48.436;10.028;2023-04-24T06:48:37;5.30;;;1.88;;
67675;SDS011;54456;48.436;10.028;2023-04-24T06:50:07;5.63;;;2.00;;
67675;SDS011;54456;48.436;10.028;2023-04-24T06:51:38;6.32;;;1.80;;
67675;SDS011;54456;48.436;10.028;2023-04-24T06:53:08;4.10;;;1.60;;
67675;SDS011;54456;48.436;10.028;2023-04-24T06:54:41;5.90;;;2.10;;
67675;SDS011;54456;48.436;10.028;2023-04-24T06:56:11;5.22;;;1.83;;
67675;SDS011;54456;48.436;10.028;2023-04-24T06:57:42;6.63;;;2.07;;
67675;SDS011;54456;48.436;10.028;2023-04-24T06:59:12;6.13;;;1.90;;
67675;SDS011;54456;48.436;10.028;2023-04-24T07:00:42;5.67;;;1.90;;
67675;SDS011;54456;48.436;10.028;2023-04-24T07:02:12;6.83;;;2.10;;
67675;SDS011;54456;48.436;10.028;2023-04-24T07:03:43;4.90;;;1.70;;
67675;SDS011;54456;48.436;10.028;2023-04-24T07:05:13;7.07;;;1.90;;
67675;SDS011;54456;48.436;10.028;2023-04-24T07:06:45;6.93;;;1.85;;
67675;SDS011;54456;48.436;10.028;2023-04-24T07:08:16;6.30;;;2.00;;
67675;SDS011;54456;48.436;10.028;2023-04-24T07:09:47;5.32;;;1.80;;
67675;SDS011;54456;48.436;10.028;2023-04-24T07:11:18;6.28;;;1.90;;
67675;SDS011;54456;48.436;10.028;2023-04-24T07:12:48;6.20;;;2.00;;
67675;SDS011;54456;48.436;10.028;2023-04-24T07:14:18;4.63;;;1.70;;
67675;SDS011;54456;48.436;10.028;2023-04-24T07:15:49;6.35;;;1.60;;
67675;SDS011;54456;48.436;10.028;2023-04-24T07:17:23;5.43;;;1.85;;
67675;SDS011;54456;48.436;10.028;2023-04-24T07:18:54;5.80;;;1.87;;
67675;SDS011;54456;48.436;10.028;2023-04-24T07:20:24;6.20;;;1.80;;
67675;SDS011;54456;48.436;10.028;2023-04-24T07:21:54;5.17;;;1.70;;
67675;SDS011;54456;48.436;10.028;2023-04-24T07:23:25;6.10;;;2.20;;
67675;SDS011;54456;48.436;10.028;2023-04-24T07:24:55;6.60;;;1.60;;
67675;SDS011;54456;48.436;10.028;2023-04-24T07:26:25;6.30;;;1.70;;
67675;SDS011;54456;48.436;10.028;2023-04-24T07:27:56;4.97;;;1.70;;
67675;SDS011;54456;48.436;10.028;2023-04-24T07:29:26;5.53;;;1.80;;
67675;SDS011;54456;48.436;10.028;2023-04-24T07:30:57;4.93;;;1.47;;
67675;SDS011;54456;48.436;10.028;2023-04-24T07:32:28;5.30;;;1.63;;
67675;SDS011;54456;48.436;10.028;2023-04-24T07:33:58;5.93;;;1.80;;
67675;SDS011;54456;48.436;10.028;2023-04-24T07:35:29;3.72;;;1.40;;
67675;SDS011;54456;48.436;10.028;2023-04-24T07:36:59;4.47;;;1.60;;
67675;SDS011;54456;48.436;10.028;2023-04-24T07:38:30;5.13;;;1.60;;
67675;SDS011;54456;48.436;10.028;2023-04-24T07:40:00;4.63;;;1.65;;
67675;SDS011;54456;48.436;10.028;2023-04-24T07:41:30;4.45;;;2.03;;
67675;SDS011;54456;48.436;10.028;2023-04-24T07:43:01;3.33;;;1.40;;
67675;SDS011;54456;48.436;10.028;2023-04-24T07:44:31;7.03;;;2.20;;
67675;SDS011;54456;48.436;10.028;2023-04-24T07:46:02;6.85;;;1.77;;
67675;SDS011;54456;48.436;10.028;2023-04-24T07:47:32;5.07;;;1.50;;
67675;SDS011;54456;48.436;10.028;2023-04-24T07:49:02;3.83;;;1.17;;
67675;SDS011;54456;48.436;10.028;2023-04-24T07:50:34;3.40;;;1.20;;
67675;SDS011;54456;48.436;10.028;2023-04-24T07:52:04;5.32;;;1.55;;
67675;SDS011;54456;48.436;10.028;2023-04-24T07:53:35;5.72;;;1.55;;
67675;SDS011;54456;48.436;10.028;2023-04-24T07:55:05;4.20;;;1.70;;
67675;SDS011;54456;48.436;10.028;2023-04-24T07:56:35;4.82;;;1.70;;
67675;SDS011;54456;48.436;10.028;2023-04-24T07:58:08;4.45;;;1.60;;
67675;SDS011;54456;48.436;10.028;2023-04-24T07:59:39;4.53;;;1.30;;
67675;SDS011;54456;48.436;10.028;2023-04-24T08:01:09;4.07;;;1.70;;
67675;SDS011;54456;48.436;10.028;2023-04-24T08:02:39;4.72;;;1.50;;
67675;SDS011;54456;48.436;10.028;2023-04-24T08:04:10;4.40;;;1.40;;
67675;SDS011;54456;48.436;10.028;2023-04-24T08:05:40;4.73;;;1.73;;
67675;SDS011;54456;48.436;10.028;2023-04-24T08:07:11;5.10;;;1.50;;
67675;SDS011;54456;48.436;10.028;2023-04-24T08:08:42;4.63;;;1.52;;
67675;SDS011;54456;48.436;10.028;2023-04-24T08:10:13;6.23;;;1.93;;
67675;SDS011;54456;48.436;10.028;2023-04-24T08:11:43;5.63;;;2.37;;
67675;SDS011;54456;48.436;10.028;2023-04-24T08:13:14;5.53;;;1.80;;
67675;SDS011;54456;48.436;10.028;2023-04-24T08:14:44;5.00;;;2.10;;
67675;SDS011;54456;48.436;10.028;2023-04-24T08:16:14;6.13;;;1.90;;
67675;SDS011;54456;48.436;10.028;2023-04-24T08:17:45;5.13;;;1.85;;
67675;SDS011;54456;48.436;10.028;2023-04-24T08:19:15;4.50;;;1.90;;
67675;SDS011;54456;48.436;10.028;2023-04-24T08:20:45;5.20;;;1.70;;
67675;SDS011;54456;48.436;10.028;2023-04-24T08:22:15;6.37;;;1.90;;
67675;SDS011;54456;48.436;10.028;2023-04-24T08:23:46;5.40;;;1.73;;
67675;SDS011;54456;48.436;10.028;2023-04-24T08:25:16;4.03;;;1.30;;
67675;SDS011;54456;48.436;10.028;2023-04-24T08:26:47;4.97;;;1.80;;
67675;SDS011;54456;48.436;10.028;2023-04-24T08:28:20;5.82;;;1.70;;
67675;SDS011;54456;48.436;10.028;2023-04-24T08:29:50;6.17;;;2.00;;
67675;SDS011;54456;48.436;10.028;2023-04-24T08:31:20;5.67;;;1.90;;
67675;SDS011;54456;48.436;10.028;2023-04-24T08:32:50;5.33;;;1.77;;
67675;SDS011;54456;48.436;10.028;2023-04-24T08:34:21;6.57;;;1.90;;
67675;SDS011;54456;48.436;10.028;2023-04-24T08:35:52;4.35;;;1.70;;
67675;SDS011;54456;48.436;10.028;2023-04-24T08:37:23;4.32;;;1.50;;
67675;SDS011;54456;48.436;10.028;2023-04-24T08:38:53;5.07;;;1.70;;
67675;SDS011;54456;48.436;10.028;2023-04-24T08:40:26;4.53;;;1.50;;
67675;SDS011;54456;48.436;10.028;2023-04-24T08:41:58;5.43;;;1.92;;
67675;SDS011;54456;48.436;10.028;2023-04-24T08:43:35;4.63;;;1.85;;
67675;SDS011;54456;48.436;10.028;2023-04-24T08:45:06;4.97;;;1.73;;
67675;SDS011;54456;48.436;10.028;2023-04-24T08:46:37;5.28;;;1.77;;
67675;SDS011;54456;48.436;10.028;2023-04-24T08:48:07;3.70;;;1.30;;
67675;SDS011;54456;48.436;10.028;2023-04-24T08:49:38;3.47;;;1.20;;
67675;SDS011;54456;48.436;10.028;2023-04-24T08:51:09;2.03;;;0.90;;
67675;SDS011;54456;48.436;10.028;2023-04-24T08:52:39;4.75;;;1.73;;
67675;SDS011;54456;48.436;10.028;2023-04-24T08:54:11;5.78;;;1.90;;
67675;SDS011;54456;48.436;10.028;2023-04-24T08:55:42;4.65;;;1.50;;
67675;SDS011;54456;48.436;10.028;2023-04-24T08:57:14;6.43;;;2.03;;
67675;SDS011;54456;48.436;10.028;2023-04-24T08:58:44;3.88;;;1.17;;
67675;SDS011;54456;48.436;10.028;2023-04-24T09:00:15;5.25;;;1.40;;
67675;SDS011;54456;48.436;10.028;2023-04-24T09:01:46;6.13;;;1.63;;
67675;SDS011;54456;48.436;10.028;2023-04-24T09:03:18;3.70;;;1.33;;
67675;SDS011;54456;48.436;10.028;2023-04-24T09:04:48;5.85;;;1.60;;
67675;SDS011;54456;48.436;10.028;2023-04-24T09:06:19;4.40;;;1.40;;
67675;SDS011;54456;48.436;10.028;2023-04-24T09:07:55;4.47;;;1.52;;
67675;SDS011;54456;48.436;10.028;2023-04-24T09:10:56;4.23;;;1.40;;
67675;SDS011;54456;48.436;10.028;2023-04-24T09:12:28;5.95;;;1.50;;
67675;SDS011;54456;48.436;10.028;2023-04-24T09:13:58;4.20;;;1.50;;
67675;SDS011;54456;48.436;10.028;2023-04-24T09:15:29;6.18;;;1.75;;
67675;SDS011;54456;48.436;10.028;2023-04-24T09:16:59;5.37;;;1.70;;
67675;SDS011;54456;48.436;10.028;2023-04-24T09:18:29;5.13;;;1.60;;
67675;SDS011;54456;48.436;10.028;2023-04-24T09:20:00;5.87;;;1.80;;
67675;SDS011;54456;48.436;10.028;2023-04-24T09:21:33;9.03;;;1.63;;
67675;SDS011;54456;48.436;10.028;2023-04-24T09:23:03;4.38;;;1.65;;
67675;SDS011;54456;48.436;10.028;2023-04-24T09:24:34;3.67;;;1.30;;
67675;SDS011;54456;48.436;10.028;2023-04-24T09:26:04;4.47;;;1.58;;
67675;SDS011;54456;48.436;10.028;2023-04-24T09:27:35;3.83;;;1.55;;
67675;SDS011;54456;48.436;10.028;2023-04-24T09:30:46;4.03;;;1.42;;
67675;SDS011;54456;48.436;10.028;2023-04-24T09:32:20;5.40;;;1.70;;
67675;SDS011;54456;48.436;10.028;2023-04-24T09:34:03;4.50;;;1.30;;
67675;SDS011;54456;48.436;10.028;2023-04-24T09:35:35;4.07;;;1.70;;
67675;SDS011;54456;48.436;10.028;2023-04-24T09:37:06;4.13;;;1.30;;
67675;SDS011;54456;48.436;10.028;2023-04-24T09:38:37;5.55;;;1.52;;
67675;SDS011;54456;48.436;10.028;2023-04-24T09:40:17;2.92;;;1.17;;
67675;SDS011;54456;48.436;10.028;2023-04-24T09:41:52;4.57;;;1.60;;
67675;SDS011;54456;48.436;10.028;2023-04-24T09:43:22;5.25;;;1.60;;
67675;SDS011;54456;48.436;10.028;2023-04-24T09:44:53;5.10;;;1.60;;
67675;SDS011;54456;48.436;10.028;2023-04-24T09:46:30;3.43;;;1.20;;
67675;SDS011;54456;48.436;10.028;2023-04-24T09:48:03;3.92;;;1.60;;
67675;SDS011;54456;48.436;10.028;2023-04-24T09:49:33;4.60;;;1.60;;
67675;SDS011;54456;48.436;10.028;2023-04-24T09:51:05;3.92;;;1.30;;
67675;SDS011;54456;48.436;10.028;2023-04-24T09:52:41;4.13;;;1.40;;
67675;SDS011;54456;48.436;10.028;2023-04-24T09:54:13;4.78;;;1.52;;
67675;SDS011;54456;48.436;10.028;2023-04-24T09:55:47;4.10;;;1.50;;
67675;SDS011;54456;48.436;10.028;2023-04-24T09:57:18;4.05;;;1.55;;
67675;SDS011;54456;48.436;10.028;2023-04-24T09:58:49;4.43;;;1.83;;
67675;SDS011;54456;48.436;10.028;2023-04-24T10:00:29;5.20;;;1.60;;
67675;SDS011;54456;48.436;10.028;2023-04-24T10:02:00;4.88;;;1.60;;
67675;SDS011;54456;48.436;10.028;2023-04-24T10:03:31;4.10;;;1.50;;
67675;SDS011;54456;48.436;10.028;2023-04-24T10:05:01;4.05;;;1.50;;
67675;SDS011;54456;48.436;10.028;2023-04-24T10:06:35;6.97;;;1.50;;
67675;SDS011;54456;48.436;10.028;2023-04-24T10:09:36;4.70;;;1.87;;
67675;SDS011;54456;48.436;10.028;2023-04-24T10:11:06;3.53;;;1.30;;
67675;SDS011;54456;48.436;10.028;2023-04-24T10:12:37;3.92;;;1.52;;
67675;SDS011;54456;48.436;10.028;2023-04-24T10:14:08;4.53;;;1.73;;
67675;SDS011;54456;48.436;10.028;2023-04-24T10:15:41;5.72;;;1.80;;
67675;SDS011;54456;48.436;10.028;2023-04-24T10:17:11;5.25;;;1.58;;
67675;SDS011;54456;48.436;10.028;2023-04-24T10:18:42;4.82;;;1.50;;
67675;SDS011;54456;48.436;10.028;2023-04-24T10:20:13;3.90;;;1.50;;
67675;SDS011;54456;48.436;10.028;2023-04-24T10:21:43;5.18;;;1.50;;
67675;SDS011;54456;48.436;10.028;2023-04-24T10:23:16;4.10;;;1.40;;
67675;SDS011;54456;48.436;10.028;2023-04-24T10:24:49;4.13;;;1.30;;
67675;SDS011;54456;48.436;10.028;2023-04-24T10:26:20;4.53;;;1.50;;
67675;SDS011;54456;48.436;10.028;2023-04-24T10:27:50;3.85;;;1.50;;
67675;SDS011;54456;48.436;10.028;2023-04-24T10:29:21;3.70;;;1.58;;
67675;SDS011;54456;48.436;10.028;2023-04-24T10:30:52;4.35;;;1.70;;
67675;SDS011;54456;48.436;10.028;2023-04-24T10:32:25;3.53;;;1.50;;
67675;SDS011;54456;48.436;10.028;2023-04-24T10:33:55;3.60;;;1.30;;
67675;SDS011;54456;48.436;10.028;2023-04-24T10:35:26;3.80;;;1.50;;
67675;SDS011;54456;48.436;10.028;2023-04-24T10:37:00;4.03;;;1.33;;
67675;SDS011;54456;48.436;10.028;2023-04-24T10:38:31;4.22;;;1.45;;
67675;SDS011;54456;48.436;10.028;2023-04-24T10:40:02;3.67;;;1.30;;
67675;SDS011;54456;48.436;10.028;2023-04-24T10:41:32;3.65;;;1.40;;
67675;SDS011;54456;48.436;10.028;2023-04-24T10:43:03;3.10;;;1.40;;
67675;SDS011;54456;48.436;10.028;2023-04-24T10:44:36;3.78;;;1.30;;
67675;SDS011;54456;48.436;10.028;2023-04-24T10:46:06;4.00;;;1.40;;
67675;SDS011;54456;48.436;10.028;2023-04-24T10:47:40;3.85;;;1.50;;
67675;SDS011;54456;48.436;10.028;2023-04-24T10:50:45;3.33;;;1.50;;
67675;SDS011;54456;48.436;10.028;2023-04-24T10:52:15;2.83;;;1.13;;
67675;SDS011;54456;48.436;10.028;2023-04-24T10:53:46;4.57;;;1.40;;
67675;SDS011;54456;48.436;10.028;2023-04-24T10:55:16;3.87;;;1.40;;
67675;SDS011;54456;48.436;10.028;2023-04-24T10:58:50;3.65;;;1.35;;
67675;SDS011;54456;48.436;10.028;2023-04-24T11:00:22;3.97;;;1.30;;
67675;SDS011;54456;48.436;10.028;2023-04-24T11:01:55;5.72;;;1.30;;
67675;SDS011;54456;48.436;10.028;2023-04-24T11:03:26;3.53;;;1.40;;
67675;SDS011;54456;48.436;10.028;2023-04-24T11:04:57;5.68;;;1.65;;
67675;SDS011;54456;48.436;10.028;2023-04-24T11:08:11;5.97;;;1.75;;
67675;SDS011;54456;48.436;10.028;2023-04-24T11:09:42;4.43;;;1.88;;
67675;SDS011;54456;48.436;10.028;2023-04-24T11:11:13;4.05;;;1.50;;
67675;SDS011;54456;48.436;10.028;2023-04-24T11:12:44;4.57;;;1.50;;
67675;SDS011;54456;48.436;10.028;2023-04-24T11:14:15;4.53;;;1.70;;
67675;SDS011;54456;48.436;10.028;2023-04-24T11:15:46;4.20;;;1.48;;
67675;SDS011;54456;48.436;10.028;2023-04-24T11:17:36;4.47;;;1.40;;
67675;SDS011;54456;48.436;10.028;2023-04-24T11:19:09;4.80;;;1.50;;
67675;SDS011;54456;48.436;10.028;2023-04-24T11:20:43;4.13;;;1.50;;
67675;SDS011;54456;48.436;10.028;2023-04-24T11:22:14;4.55;;;1.80;;
67675;SDS011;54456;48.436;10.028;2023-04-24T11:23:45;3.28;;;1.30;;
67675;SDS011;54456;48.436;10.028;2023-04-24T11:25:15;5.25;;;1.77;;
67675;SDS011;54456;48.436;10.028;2023-04-24T11:26:46;4.25;;;1.70;;
67675;SDS011;54456;48.436;10.028;2023-04-24T11:28:16;5.37;;;1.70;;
67675;SDS011;54456;48.436;10.028;2023-04-24T11:33:06;2.33;;;1.05;;
67675;SDS011;54456;48.436;10.028;2023-04-24T11:34:37;4.43;;;1.50;;
67675;SDS011;54456;48.436;10.028;2023-04-24T11:36:08;6.22;;;1.55;;
67675;SDS011;54456;48.436;10.028;2023-04-24T11:37:39;4.80;;;1.53;;
67675;SDS011;54456;48.436;10.028;2023-04-24T11:39:09;4.47;;;1.52;;
67675;SDS011;54456;48.436;10.028;2023-04-24T11:40:41;3.50;;;1.30;;
67675;SDS011;54456;48.436;10.028;2023-04-24T11:42:14;6.18;;;2.10;;
67675;SDS011;54456;48.436;10.028;2023-04-24T11:43:44;4.43;;;1.63;;
67675;SDS011;54456;48.436;10.028;2023-04-24T11:46:45;4.60;;;1.80;;
67675;SDS011;54456;48.436;10.028;2023-04-24T11:48:19;5.20;;;1.90;;
67675;SDS011;54456;48.436;10.028;2023-04-24T11:51:20;20.13;;;7.37;;
67675;SDS011;54456;48.436;10.028;2023-04-24T11:52:50;34.50;;;8.93;;
67675;SDS011;54456;48.436;10.028;2023-04-24T11:54:20;5.30;;;1.52;;
67675;SDS011;54456;48.436;10.028;2023-04-24T11:55:50;4.20;;;1.80;;
67675;SDS011;54456;48.436;10.028;2023-04-24T11:57:25;6.00;;;1.88;;
67675;SDS011;54456;48.436;10.028;2023-04-24T11:58:57;5.28;;;1.90;;
67675;SDS011;54456;48.436;10.028;2023-04-24T12:01:58;4.57;;;1.63;;
67675;SDS011;54456;48.436;10.028;2023-04-24T12:03:28;5.00;;;1.90;;
67675;SDS011;54456;48.436;10.028;2023-04-24T12:04:58;3.90;;;1.43;;
67675;SDS011;54456;48.436;10.028;2023-04-24T12:06:28;5.60;;;1.80;;
67675;SDS011;54456;48.436;10.028;2023-04-24T12:07:59;5.57;;;1.70;;
67675;SDS011;54456;48.436;10.028;2023-04-24T12:09:29;3.93;;;1.50;;
67675;SDS011;54456;48.436;10.028;2023-04-24T12:11:09;3.85;;;1.30;;
67675;SDS011;54456;48.436;10.028;2023-04-24T12:12:40;3.92;;;1.40;;
67675;SDS011;54456;48.436;10.028;2023-04-24T12:14:11;3.83;;;1.40;;
67675;SDS011;54456;48.436;10.028;2023-04-24T12:15:41;3.63;;;1.38;;
67675;SDS011;54456;48.436;10.028;2023-04-24T12:17:11;3.90;;;1.40;;
67675;SDS011;54456;48.436;10.028;2023-04-24T12:18:42;4.10;;;1.50;;
67675;SDS011;54456;48.436;10.028;2023-04-24T12:20:13;4.45;;;1.60;;
67675;SDS011;54456;48.436;10.028;2023-04-24T12:21:44;5.60;;;1.30;;
67675;SDS011;54456;48.436;10.028;2023-04-24T12:23:34;2.50;;;1.02;;
67675;SDS011;54456;48.436;10.028;2023-04-24T12:25:09;5.15;;;1.40;;
67675;SDS011;54456;48.436;10.028;2023-04-24T12:26:42;4.15;;;1.60;;
67675;SDS011;54456;48.436;10.028;2023-04-24T12:28:12;2.88;;;1.13;;
67675;SDS011;54456;48.436;10.028;2023-04-24T12:29:52;4.22;;;1.63;;
67675;SDS011;54456;48.436;10.028;2023-04-24T12:31:23;4.28;;;1.30;;
67675;SDS011;54456;48.436;10.028;2023-04-24T12:32:53;3.57;;;1.40;;